Time;durP1;ratioP1;P1;durP2;ratioP2;P2;SDS_P1;SDS_P2;PMS_P1;PMS_P2;Temp;Humidity;BMP_temperature;BMP_pressure;BME280_temperature;BME280_humidity;BME280_pressure;Samples;Min_cycle;Max_cycle;Signal;HPM_P1;HPM_P2
2022/12/29 00:02:13;;;;;;;;;;;;;;;1.49;80.92;101247.29;1707134;84;20235;-77
2022/12/29 00:05:19;;;;;;;;;;;;;;;1.41;80.98;101237.45;1676644;85;20222;-78
2022/12/29 00:08:39;;;;;;;;;;;;;;;1.46;80.84;101240.28;1710055;84;20220;-79
2022/12/29 00:11:32;;;;;;;;;;;;;;;1.56;80.63;101236.53;1678778;85;20269;-77
2022/12/29 00:17:59;;;;;;;;;;;;;;;1.24;82.03;101233.98;1702915;84;20248;-78
2022/12/29 00:44:30;;;;;;;;;;;;;;;1.28;80.80;101226.59;1706888;84;20207;-77
2022/12/29 00:47:34;;;;;;;;;;;;;;;1.32;81.02;101232.63;1695465;84;20220;-77
2022/12/29 00:50:39;;;;;;;;;;;;;;;1.54;80.04;101232.55;1702331;84;20683;-78
2022/12/29 00:53:44;;;;;;;;;;;;;;;1.37;80.58;101234.59;1667687;85;20203;-79
2022/12/29 00:56:49;;;;;;;;;;;;;;;1.10;81.25;101240.70;1705232;84;20260;-78
2022/12/29 00:59:54;;;;;;;;;;;;;;;0.86;81.57;101247.09;1703414;84;20235;-78
2022/12/29 01:02:58;;;;;;;;;;;;;;;1.02;80.77;101258.66;1706228;84;20207;-78
2022/12/29 01:06:03;;;;;;;;;;;;;;;1.06;80.33;101251.27;1697305;84;20684;-78
2022/12/29 01:12:41;;;;;;;;;;;;;;;0.63;81.41;101248.44;1704326;83;20755;-78
2022/12/29 01:15:46;;;;;;;;;;;;;;;1.00;81.27;101242.22;1712011;83;20247;-77
2022/12/29 01:18:45;;;;;;;;;;;;;;;1.11;80.34;101245.12;1715727;83;20223;-77
2022/12/29 01:21:39;;;;;;;;;;;;;;;0.70;80.86;101248.45;1712966;83;20223;-77
2022/12/29 01:24:44;;;;;;;;;;;;;;;0.67;81.64;101253.17;1670533;85;20236;-77
2022/12/29 01:27:48;;;;;;;;;;;;;;;0.76;81.92;101254.84;1683302;85;20201;-77
2022/12/29 01:30:53;;;;;;;;;;;;;;;0.60;82.76;101257.17;1684735;84;20636;-77
2022/12/29 01:33:57;;;;;;;;;;;;;;;0.74;82.71;101263.48;1684967;85;20214;-77
2022/12/29 01:37:01;;;;;;;;;;;;;;;0.87;82.58;101258.72;1684082;85;20627;-76
2022/12/29 01:40:06;;;;;;;;;;;;;;;0.78;83.25;101255.23;1655085;87;20646;-76
2022/12/29 01:43:14;;;;;;;;;;;;;;;0.78;82.75;101255.23;1669112;85;20257;-76
2022/12/29 01:46:46;;;;;;;;;;;;;;;0.69;82.71;101250.77;1650656;86;20305;-76
2022/12/29 01:49:50;;;;;;;;;;;;;;;0.70;83.29;101248.94;1652701;86;20248;-77
2022/12/29 01:53:06;;;;;;;;;;;;;;;0.81;82.95;101249.19;1654931;86;20629;-77
2022/12/29 01:56:30;;;;;;;;;;;;;;;0.57;84.16;101253.33;1684242;85;20639;-78
2022/12/29 01:59:40;;;;;;;;;;;;;;;0.58;84.31;101243.81;1756557;81;20205;-77
2022/12/29 02:02:44;;;;;;;;;;;;;;;0.93;83.72;101251.13;1758366;81;20634;-77
2022/12/29 02:06:02;;;;;;;;;;;;;;;1.04;82.95;101244.26;1745170;81;20244;-78
2022/12/29 02:09:06;;;;;;;;;;;;;;;1.61;81.39;101242.98;1746032;81;20222;-77
2022/12/29 02:12:12;;;;;;;;;;;;;;;1.77;80.21;101244.59;1757420;81;20366;-77
2022/12/29 02:15:17;;;;;;;;;;;;;;;2.08;79.20;101252.09;1749024;81;20250;-77
2022/12/29 02:18:38;;;;;;;;;;;;;;;1.67;80.29;101241.23;1757202;81;20212;-77
2022/12/29 02:22:20;;;;;;;;;;;;;;;1.84;79.75;101249.63;1745850;81;20607;-76
2022/12/29 02:25:33;;;;;;;;;;;;;;;1.97;79.72;101250.55;1732995;81;20218;-77
2022/12/29 02:28:44;;;;;;;;;;;;;;;1.98;79.99;101246.91;1727475;82;20606;-77
2022/12/29 02:32:05;;;;;;;;;;;;;;;2.25;79.27;101254.55;1755777;82;20353;-77
2022/12/29 02:35:30;;;;;;;;;;;;;;;2.21;78.71;101248.09;1722937;83;20195;-76
2022/12/29 02:38:40;;;;;;;;;;;;;;;2.22;79.27;101253.91;1721357;83;20227;-77
2022/12/29 02:41:50;;;;;;;;;;;;;;;2.06;80.00;101243.21;1718563;83;20242;-76
2022/12/29 02:45:13;;;;;;;;;;;;;;;1.70;81.19;101248.66;1718429;83;20239;-77
2022/12/29 02:48:26;;;;;;;;;;;;;;;1.77;81.88;101244.59;1721516;83;20640;-77
2022/12/29 02:51:37;;;;;;;;;;;;;;;1.86;82.21;101247.69;1723144;83;20236;-77
2022/12/29 02:54:41;;;;;;;;;;;;;;;1.94;82.20;101250.28;1722353;83;20215;-76
2022/12/29 02:57:45;;;;;;;;;;;;;;;2.64;81.20;101256.09;1685814;83;20223;-77
2022/12/29 03:01:22;;;;;;;;;;;;;;;2.27;80.22;101254.47;1710078;84;20220;-78
2022/12/29 03:04:44;;;;;;;;;;;;;;;2.22;81.25;101258.81;1708851;84;20223;-78
2022/12/29 03:08:02;;;;;;;;;;;;;;;1.70;83.33;101257.23;1709049;84;20256;-78
2022/12/29 03:18:21;;;;;;;;;;;;;;;1.94;83.16;101250.77;1708952;84;20220;-78
2022/12/29 03:25:19;;;;;;;;;;;;;;;1.89;83.29;101244.80;1707800;84;20212;-78
2022/12/29 03:28:31;;;;;;;;;;;;;;;1.87;83.49;101249.41;1702781;84;20644;-78
2022/12/29 03:31:37;;;;;;;;;;;;;;;1.97;83.15;101242.45;1705878;84;20211;-78
2022/12/29 03:34:43;;;;;;;;;;;;;;;2.21;82.12;101239.99;1708728;84;20220;-77
2022/12/29 03:38:07;;;;;;;;;;;;;;;2.23;81.84;101244.34;1709391;84;20236;-78
2022/12/29 03:41:13;;;;;;;;;;;;;;;2.30;82.00;101244.31;1710010;84;20417;-77
2022/12/29 03:44:18;;;;;;;;;;;;;;;2.46;81.26;101244.67;1710114;84;20211;-78
2022/12/29 03:47:23;;;;;;;;;;;;;;;2.43;80.98;101248.91;1690553;84;20223;-77
2022/12/29 03:50:26;;;;;;;;;;;;;;;2.35;80.98;101243.14;1708510;84;20243;-78
2022/12/29 03:53:31;;;;;;;;;;;;;;;2.29;81.25;101252.52;1710092;84;20615;-78
2022/12/29 03:56:35;;;;;;;;;;;;;;;2.19;80.84;101243.30;1710065;84;20217;-77
2022/12/29 03:59:41;;;;;;;;;;;;;;;2.14;81.42;101238.19;1700175;84;20228;-78
2022/12/29 04:02:45;;;;;;;;;;;;;;;1.97;80.37;101241.10;1717355;83;20224;-77
2022/12/29 04:05:51;;;;;;;;;;;;;;;1.78;81.57;101234.18;1716651;83;20660;-78
2022/12/29 04:08:58;;;;;;;;;;;;;;;1.74;81.79;101240.77;1712809;83;20215;-77
2022/12/29 04:12:04;;;;;;;;;;;;;;;2.06;80.66;101245.91;1717490;83;20628;-78
2022/12/29 04:15:08;;;;;;;;;;;;;;;2.06;79.45;101236.46;1715997;83;20239;-77
2022/12/29 04:18:15;;;;;;;;;;;;;;;1.65;80.22;101239.99;1711622;83;20204;-77
2022/12/29 04:21:19;;;;;;;;;;;;;;;1.55;81.24;101237.46;1715859;83;20240;-77
2022/12/29 04:24:23;;;;;;;;;;;;;;;1.77;81.40;101239.20;1716226;83;20225;-77
2022/12/29 04:27:28;;;;;;;;;;;;;;;1.84;81.16;101234.78;1717320;83;20224;-77
2022/12/29 04:30:40;;;;;;;;;;;;;;;1.75;81.57;101231.70;1680391;84;20237;-77
2022/12/29 04:33:48;;;;;;;;;;;;;;;1.61;81.30;101231.70;1734173;83;20226;-77
2022/12/29 04:36:55;;;;;;;;;;;;;;;1.54;82.09;101227.64;1733573;83;20250;-77
2022/12/29 04:40:00;;;;;;;;;;;;;;;2.03;81.33;101223.19;1713902;83;20224;-77
2022/12/29 04:43:04;;;;;;;;;;;;;;;2.56;78.06;101222.83;1714875;83;20222;-77
2022/12/29 04:46:12;;;;;;;;;;;;;;;2.50;78.05;101228.65;1714893;82;20721;-76
2022/12/29 04:49:23;;;;;;;;;;;;;;;2.50;77.61;101221.41;1723092;83;20218;-77
2022/12/29 04:52:46;;;;;;;;;;;;;;;2.58;76.96;101226.28;1721016;83;20198;-77
2022/12/29 04:55:54;;;;;;;;;;;;;;;2.41;77.62;101233.31;1729100;83;20246;-77
2022/12/29 04:59:00;;;;;;;;;;;;;;;1.51;80.62;101242.69;1713359;83;20225;-76
2022/12/29 05:02:05;;;;;;;;;;;;;;;1.40;81.41;101243.33;1747764;81;20288;-77
2022/12/29 05:05:12;;;;;;;;;;;;;;;1.12;82.72;101248.20;1748814;82;20610;-76
2022/12/29 05:08:16;;;;;;;;;;;;;;;0.96;83.33;101247.41;1717016;83;20215;-77
2022/12/29 05:11:25;;;;;;;;;;;;;;;1.34;82.42;101238.81;1748441;82;20257;-77
2022/12/29 05:14:31;;;;;;;;;;;;;;;1.45;82.50;101241.70;1747054;82;20241;-76
2022/12/29 05:17:37;;;;;;;;;;;;;;;1.54;82.14;101236.59;1748490;82;20701;-76
2022/12/29 05:20:41;;;;;;;;;;;;;;;1.50;82.21;101235.05;1717560;83;20207;-76
2022/12/29 05:23:41;;;;;;;;;;;;;;;1.37;82.67;101235.94;1747071;82;20228;-77
2022/12/29 05:26:46;;;;;;;;;;;;;;;1.39;83.26;101228.12;1748116;82;21193;-77
2022/12/29 05:29:54;;;;;;;;;;;;;;;1.42;83.60;101221.69;1746166;82;20225;-77
2022/12/29 05:32:59;;;;;;;;;;;;;;;1.50;83.74;101224.27;1747480;82;20650;-78
2022/12/29 05:36:03;;;;;;;;;;;;;;;1.52;83.71;101225.54;1717014;83;20243;-77
2022/12/29 05:39:09;;;;;;;;;;;;;;;1.61;83.74;101233.54;1747660;82;20197;-77
2022/12/29 05:42:17;;;;;;;;;;;;;;;1.67;83.59;101234.01;1747854;82;20212;-77
2022/12/29 05:45:44;;;;;;;;;;;;;;;1.68;83.34;101237.08;1731905;83;20246;-77
2022/12/29 09:32:07;;;;;;;23.18;13.00;;;;;;;2.71;100.00;101217.73;1791062;79;28157;-76
2022/12/29 09:35:16;;;;;;;24.10;13.43;;;;;;;2.74;100.00;101228.34;1753019;82;21239;-77
2022/12/29 09:38:21;;;;;;;26.23;14.78;;;;;;;2.84;100.00;101220.48;1765872;81;21180;-77
2022/12/29 09:41:36;;;;;;;20.48;12.18;;;;;;;3.15;100.00;101213.81;1744225;81;21165;-76
2022/12/29 09:45:02;;;;;;;20.02;11.65;;;;;;;3.20;100.00;101210.33;1752273;80;21220;-76
2022/12/29 09:48:08;;;;;;;19.02;11.38;;;;;;;3.79;98.26;101213.31;1748986;81;21169;-76
2022/12/29 09:51:22;;;;;;;23.22;12.30;;;;;;;3.91;96.84;101217.48;1747452;81;21184;-77
2022/12/29 09:54:40;;;;;;;16.93;10.85;;;;;;;4.13;95.01;101218.11;1763133;81;21239;-76
2022/12/29 09:57:57;;;;;;;22.58;11.35;;;;;;;4.21;94.20;101214.36;1753895;81;21212;-77
2022/12/29 10:01:23;;;;;;;16.90;10.53;;;;;;;4.46;92.88;101222.86;1755264;81;21255;-77
2022/12/29 10:04:28;;;;;;;15.65;9.65;;;;;;;4.52;91.04;101221.94;1756526;81;21202;-77
2022/12/29 10:07:54;;;;;;;19.67;9.98;;;;;;;4.45;89.73;101218.44;1756583;81;21192;-77
2022/12/29 10:11:15;;;;;;;22.85;9.95;;;;;;;4.45;89.46;101223.85;1782558;80;21239;-76
2022/12/29 10:14:47;;;;;;;16.80;10.55;;;;;;;4.44;88.18;101214.00;1777893;80;21198;-76
2022/12/29 10:18:08;;;;;;;19.15;9.68;;;;;;;4.21;88.81;101211.16;1772432;80;21748;-78
2022/12/29 10:24:49;;;;;;;14.83;9.33;;;;;;;4.64;86.62;101203.01;1719206;83;21731;-77
2022/12/29 10:27:57;;;;;;;13.62;9.20;;;;;;;4.55;87.19;101198.66;1721929;83;21212;-77
2022/12/29 10:31:03;;;;;;;13.32;7.72;;;;;;;4.47;86.66;101201.09;1708495;83;21186;-77
2022/12/29 10:34:13;;;;;;;17.15;8.88;;;;;;;4.69;85.46;101190.83;1697424;84;21241;-77
2022/12/29 10:37:22;;;;;;;14.00;8.20;;;;;;;4.83;84.98;101191.99;1694551;84;21193;-76
2022/12/29 10:40:48;;;;;;;14.75;7.65;;;;;;;5.03;83.65;101196.36;1695757;84;21296;-78
2022/12/29 10:43:59;;;;;;;12.93;7.10;;;;;;;4.80;84.49;101189.54;1702174;84;21299;-77
2022/12/29 10:47:09;;;;;;;13.75;8.13;;;;;;;5.01;83.72;101190.20;1703910;84;21518;-77
2022/12/29 10:50:17;;;;;;;15.45;7.83;;;;;;;4.88;84.14;101180.30;1694675;82;21205;-77
2022/12/29 10:53:32;;;;;;;17.00;7.90;;;;;;;5.15;83.13;101181.00;1693235;84;21209;-77
2022/12/29 10:57:01;;;;;;;13.58;8.25;;;;;;;5.28;81.51;101177.70;1693817;84;21213;-77
2022/12/29 11:00:07;;;;;;;16.15;8.00;;;;;;;5.32;80.75;101175.98;1693465;84;21189;-78
2022/12/29 11:03:52;;;;;;;16.85;8.25;;;;;;;5.62;79.35;101172.66;1690282;84;21205;-77
2022/12/29 11:06:58;;;;;;;13.10;7.67;;;;;;;5.79;78.45;101169.09;1688278;84;21188;-78
2022/12/29 11:10:31;;;;;;;15.70;8.83;;;;;;;5.54;78.50;101163.39;1702780;84;21229;-78
2022/12/29 11:13:41;;;;;;;14.65;7.92;;;;;;;5.28;79.49;101157.35;1693511;84;22599;-78
2022/12/29 11:16:50;;;;;;;17.07;9.53;;;;;;;5.38;79.42;101147.00;1692900;84;21201;-77
2022/12/29 11:19:55;;;;;;;13.68;8.15;;;;;;;5.28;79.60;101146.01;1696064;84;21193;-78
2022/12/29 11:23:02;;;;;;;14.78;6.75;;;;;;;5.26;80.02;101137.61;1697721;84;22410;-79
2022/12/29 11:26:19;;;;;;;13.48;7.58;;;;;;;5.20;79.96;101129.97;1707726;82;21190;-77
2022/12/29 11:29:39;;;;;;;12.20;6.37;;;;;;;5.24;79.46;101120.11;1713372;82;21804;-78
2022/12/29 11:32:46;;;;;;;12.73;7.37;;;;;;;4.99;79.67;101122.55;1693147;84;21204;-79
2022/12/29 11:35:53;;;;;;;14.15;7.00;;;;;;;4.87;80.71;101118.94;1704318;81;21207;-78
2022/12/29 11:39:00;;;;;;;14.93;7.55;;;;;;;4.86;81.10;101103.66;1709992;81;21238;-77
2022/12/29 11:42:09;;;;;;;12.60;8.23;;;;;;;5.18;79.62;101104.83;1721751;81;21260;-78
2022/12/29 11:45:26;;;;;;;12.23;7.42;;;;;;;5.18;79.62;101104.83;1737709;82;21641;-79
2022/12/29 11:48:31;;;;;;;15.78;8.20;;;;;;;4.90;81.20;101106.15;1737946;82;21181;-78
2022/12/29 11:51:54;;;;;;;14.63;6.58;;;;;;;4.93;81.34;101101.81;1729921;83;21175;-78
2022/12/29 11:55:00;;;;;;;28.87;11.22;;;;;;;5.23;80.41;101097.19;1731166;81;21186;-78
2022/12/29 11:58:08;;;;;;;16.75;7.42;;;;;;;5.17;80.13;101086.30;1732142;83;21210;-79
2022/12/29 12:01:33;;;;;;;13.72;6.35;;;;;;;5.15;79.95;101099.64;1706263;83;21206;-78
2022/12/29 12:04:42;;;;;;;11.78;6.25;;;;;;;5.37;79.83;101095.09;1703266;84;21214;-78
2022/12/29 12:07:54;;;;;;;8.83;5.10;;;;;;;5.33;79.69;101093.60;1714546;81;21188;-78
2022/12/29 12:11:13;;;;;;;12.73;6.75;;;;;;;5.23;80.08;101093.11;1721701;82;21254;-78
2022/12/29 12:14:26;;;;;;;9.60;6.08;;;;;;;5.32;79.72;101093.73;1722883;82;21470;-79
2022/12/29 12:17:46;;;;;;;11.10;5.97;;;;;;;5.37;79.10;101104.58;1716398;83;21790;-78
2022/12/29 12:21:02;;;;;;;12.55;6.37;;;;;;;5.37;79.40;101093.73;1725873;82;21185;-79
2022/12/29 12:24:38;;;;;;;13.62;6.47;;;;;;;5.26;79.67;101086.92;1726381;81;21533;-79
2022/12/29 12:27:56;;;;;;;14.30;6.42;;;;;;;5.63;78.64;101089.38;1670565;86;21275;-79
2022/12/29 12:31:04;;;;;;;9.83;5.85;;;;;;;5.61;78.17;101083.22;1677271;82;21211;-79
2022/12/29 12:34:07;;;;;;;9.78;4.90;;;;;;;5.70;77.39;101082.47;1742749;82;21302;-79
2022/12/29 12:37:18;;;;;;;10.75;6.08;;;;;;;5.37;78.03;101077.45;1696522;84;21189;-79
2022/12/29 12:40:27;;;;;;;11.03;5.92;;;;;;;5.15;78.60;101079.30;1712566;82;21340;-79
2022/12/29 12:43:50;;;;;;;18.32;8.30;;;;;;;5.13;79.27;101074.86;1695871;84;21195;-79
2022/12/29 12:47:08;;;;;;;20.15;9.70;;;;;;;5.25;78.37;101078.92;1698963;83;21202;-78
2022/12/29 12:50:33;;;;;;;28.10;11.88;;;;;;;5.56;77.57;101080.03;1696674;83;21299;-78
2022/12/29 12:54:02;;;;;;;28.20;11.38;;;;;;;5.41;77.89;101073.11;1668451;86;21275;-78
2022/12/29 12:57:24;;;;;;;21.12;10.30;;;;;;;5.29;78.58;101071.77;1695879;84;21171;-78
2022/12/29 13:00:29;;;;;;;18.85;9.80;;;;;;;5.11;78.88;101066.47;1685702;84;21259;-79
2022/12/29 13:04:08;;;;;;;17.65;9.13;;;;;;;4.97;79.58;101059.43;1690727;85;21353;-79
2022/12/29 13:07:28;;;;;;;12.60;7.00;;;;;;;4.86;79.90;101058.94;1703774;82;21203;-78
2022/12/29 13:10:51;;;;;;;15.35;8.20;;;;;;;4.82;80.02;101064.22;1691706;84;21207;-78
2022/12/29 13:14:17;;;;;;;16.23;8.48;;;;;;;4.76;80.16;101063.36;1690390;84;21580;-78
2022/12/29 13:17:53;;;;;;;13.40;7.60;;;;;;;4.92;79.92;101072.98;1700667;83;21190;-79
2022/12/29 13:21:04;;;;;;;13.35;6.78;;;;;;;4.81;80.10;101073.84;1706451;83;21183;-79
2022/12/29 13:24:23;;;;;;;24.70;11.08;;;;;;;5.02;79.50;101076.69;1726603;83;21235;-79
2022/12/29 13:27:48;;;;;;;15.17;9.20;;;;;;;5.20;78.50;101073.01;1725158;81;21194;-78
2022/12/29 13:31:13;;;;;;;12.00;5.87;;;;;;;4.84;79.51;101069.02;1727551;83;21180;-77
2022/12/29 13:34:25;;;;;;;11.45;5.60;;;;;;;4.57;80.57;101072.07;1700594;83;21200;-78
2022/12/29 13:37:34;;;;;;;10.08;5.00;;;;;;;4.61;80.92;101072.66;1713948;82;22553;-77
2022/12/29 13:40:43;;;;;;;9.78;5.58;;;;;;;4.51;81.30;101075.73;1710265;83;21287;-77
2022/12/29 13:43:50;;;;;;;8.85;5.28;;;;;;;4.50;81.40;101078.06;1701235;83;21238;-78
2022/12/29 13:46:55;;;;;;;12.43;6.72;;;;;;;4.39;81.95;101076.69;1701558;81;21229;-77
2022/12/29 13:50:01;;;;;;;17.77;7.33;;;;;;;4.51;81.68;101083.85;1728739;82;21180;-79
2022/12/29 13:53:44;;;;;;;17.35;5.95;;;;;;;4.34;82.30;101079.26;1732519;82;21200;-78
2022/12/29 13:57:21;;;;;;;10.78;5.47;;;;;;;4.32;82.25;101079.84;1681768;84;21235;-78
2022/12/29 14:00:30;;;;;;;10.63;4.65;;;;;;;4.24;83.15;101071.96;1694134;84;21216;-77
2022/12/29 14:04:03;;;;;;;11.85;6.03;;;;;;;4.31;82.47;101074.06;1684208;84;21813;-77
2022/12/29 14:07:15;;;;;;;11.30;5.67;;;;;;;4.17;83.13;101072.90;1736603;82;21182;-77
2022/12/29 14:10:43;;;;;;;9.93;5.55;;;;;;;4.09;83.88;101079.38;1737503;82;21206;-77
2022/12/29 14:13:49;;;;;;;18.62;9.68;;;;;;;4.06;84.26;101086.40;1739220;82;21210;-78
2022/12/29 14:16:56;;;;;;;9.20;6.22;;;;;;;4.07;84.72;101088.12;1739432;82;21226;-78
2022/12/29 14:20:02;;;;;;;8.53;5.33;;;;;;;4.22;84.48;101082.03;1737639;82;21264;-78
2022/12/29 14:23:21;;;;;;;13.72;5.70;;;;;;;4.26;84.30;101087.59;1729947;83;21766;-78
2022/12/29 14:26:42;;;;;;;14.47;6.28;;;;;;;4.25;84.39;101082.67;1732757;81;21191;-78
2022/12/29 14:29:50;;;;;;;7.35;5.05;;;;;;;4.05;85.40;101083.33;1746878;82;21203;-78
2022/12/29 14:33:15;;;;;;;8.60;5.08;;;;;;;4.08;85.58;101074.95;1748399;82;21187;-78
2022/12/29 14:36:32;;;;;;;14.07;6.50;;;;;;;4.21;84.95;101064.92;1747206;82;21232;-78
2022/12/29 14:39:50;;;;;;;10.88;5.62;;;;;;;4.18;85.05;101074.63;1742470;82;21224;-77
2022/12/29 14:42:58;;;;;;;11.43;5.40;;;;;;;4.17;85.05;101061.20;1744549;82;21264;-79
2022/12/29 14:46:08;;;;;;;19.87;6.05;;;;;;;4.06;85.43;101059.33;1746423;82;21164;-80
2022/12/29 14:49:16;;;;;;;11.90;5.05;;;;;;;4.11;85.34;101062.55;1752850;82;21271;-77
2022/12/29 14:52:32;;;;;;;11.57;5.20;;;;;;;4.18;85.21;101062.44;1779657;80;21155;-79
2022/12/29 14:55:53;;;;;;;14.13;7.85;;;;;;;4.25;85.09;101062.36;1775870;80;21198;-77
2022/12/29 14:59:01;;;;;;;11.68;6.92;;;;;;;4.22;85.08;101063.94;1748508;81;21203;-79
2022/12/29 15:02:07;;;;;;;12.50;6.40;;;;;;;4.30;85.09;101072.34;1731755;82;21220;-79
2022/12/29 15:05:12;;;;;;;12.82;6.60;;;;;;;4.32;85.07;101073.08;1716439;83;21180;-79
2022/12/29 15:08:20;;;;;;;9.20;6.37;;;;;;;4.46;84.77;101077.92;1723025;82;21308;-77
2022/12/29 15:11:49;;;;;;;12.15;6.75;;;;;;;4.43;84.92;101086.31;1716377;82;21194;-78
2022/12/29 15:15:02;;;;;;;16.32;7.67;;;;;;;4.52;84.75;101085.61;1717672;83;21199;-77
2022/12/29 15:18:30;;;;;;;16.33;8.13;;;;;;;4.60;84.84;101095.34;1745916;82;21241;-77
2022/12/29 15:21:40;;;;;;;20.70;8.85;;;;;;;4.60;84.84;101095.34;1748236;82;21740;-77
2022/12/29 15:24:47;;;;;;;16.80;7.50;;;;;;;4.52;84.91;101097.80;1746677;82;21163;-77
2022/12/29 15:28:11;;;;;;;12.13;6.55;;;;;;;4.58;84.69;101104.09;1695493;81;21763;-78
2022/12/29 15:31:29;;;;;;;10.15;4.95;;;;;;;4.46;85.01;101113.14;1701875;83;21240;-77
2022/12/29 15:34:38;;;;;;;9.88;5.25;;;;;;;4.54;85.38;101123.77;1713525;83;21846;-77
2022/12/29 15:37:44;;;;;;;9.35;5.25;;;;;;;4.47;85.52;101127.06;1698040;83;21188;-77
2022/12/29 15:40:51;;;;;;;11.63;5.50;;;;;;;4.57;85.46;101128.11;1729428;81;21172;-77
2022/12/29 15:44:17;;;;;;;10.60;5.90;;;;;;;4.62;85.29;101121.84;1747159;81;21761;-76
2022/12/29 15:47:23;;;;;;;6.90;4.37;;;;;;;4.69;85.03;101125.79;1771401;81;21160;-78
2022/12/29 15:50:43;;;;;;;9.45;5.35;;;;;;;4.63;84.97;101119.50;1704824;84;21248;-77
2022/12/29 15:53:49;;;;;;;21.80;9.78;;;;;;;4.60;85.33;101115.16;1688260;85;21219;-77
2022/12/29 15:56:54;;;;;;;48.10;18.50;;;;;;;4.71;85.13;101108.08;1741307;82;21290;-78
2022/12/29 16:00:00;;;;;;;67.87;24.98;;;;;;;4.75;84.92;101093.27;1741255;82;21239;-77
2022/12/29 16:03:09;;;;;;;52.38;20.23;;;;;;;4.68;84.84;101086.62;1747816;81;21156;-77
2022/12/29 16:06:40;;;;;;;40.70;14.28;;;;;;;4.76;84.42;101084.19;1761666;81;21220;-78
2022/12/29 16:09:51;;;;;;;37.83;17.00;;;;;;;4.67;84.60;101076.77;1764501;79;21224;-78
2022/12/29 16:12:58;;;;;;;42.30;17.90;;;;;;;4.67;84.62;101074.92;1760238;81;21191;-79
2022/12/29 16:16:23;;;;;;;24.98;12.55;;;;;;;4.71;84.47;101065.58;1759499;81;21168;-79
2022/12/29 16:19:36;;;;;;;16.60;9.30;;;;;;;4.63;84.85;101064.44;1758625;81;21184;-79
2022/12/29 16:22:45;;;;;;;17.07;9.10;;;;;;;4.67;84.60;101066.80;1758528;81;21224;-79
2022/12/29 16:25:54;;;;;;;19.23;10.05;;;;;;;4.63;84.60;101062.59;1784568;79;21216;-79
2022/12/29 16:29:06;;;;;;;12.90;8.30;;;;;;;4.64;84.55;101055.32;1760508;80;21217;-78
2022/12/29 16:32:13;;;;;;;13.43;7.75;;;;;;;4.64;84.45;101060.25;1748867;80;21491;-78
2022/12/29 16:35:27;;;;;;;12.15;6.53;;;;;;;4.60;84.40;101054.69;1750523;81;21179;-77
2022/12/29 16:38:41;;;;;;;12.75;7.17;;;;;;;4.63;84.35;101061.23;1767954;80;21174;-77
2022/12/29 16:41:48;;;;;;;16.25;7.83;;;;;;;4.67;84.04;101051.03;1740820;80;21169;-78
2022/12/29 16:44:55;;;;;;;9.90;6.80;;;;;;;4.55;84.39;101046.92;1776513;80;21765;-78
2022/12/29 16:48:30;;;;;;;10.03;7.08;;;;;;;4.60;84.21;101046.06;1774997;80;21173;-78
2022/12/29 16:51:43;;;;;;;13.45;7.30;;;;;;;4.53;84.31;101037.20;1774822;80;21791;-79
2022/12/29 16:54:48;;;;;;;13.75;6.87;;;;;;;4.31;85.13;101032.09;1753751;81;21384;-78
2022/12/29 16:57:56;;;;;;;14.90;7.72;;;;;;;4.30;85.29;101023.59;1777784;80;21839;-78
2022/12/29 17:01:03;;;;;;;12.55;6.83;;;;;;;4.38;84.94;101011.31;1755076;80;21186;-78
2022/12/29 17:04:15;;;;;;;13.30;7.40;;;;;;;4.46;84.41;101006.14;1760119;80;21566;-78
2022/12/29 17:07:26;;;;;;;21.57;8.55;;;;;;;4.22;84.85;100992.17;1755882;80;21186;-77
2022/12/29 17:13:56;;;;;;;15.65;7.20;;;;;;;4.28;84.51;100990.36;1754796;80;21218;-78
2022/12/29 17:17:03;;;;;;;12.43;6.65;;;;;;;4.32;84.37;100987.76;1734741;80;21189;-77
2022/12/29 17:20:30;;;;;;;14.53;7.08;;;;;;;4.18;84.74;100989.33;1770072;80;21236;-77
2022/12/29 17:23:30;;;;;;;15.53;7.50;;;;;;;4.33;84.39;100984.09;1765068;80;21224;-77
2022/12/29 17:26:35;;;;;;;13.70;7.40;;;;;;;4.21;84.41;101001.28;1763847;80;21281;-77
2022/12/29 17:29:44;;;;;;;14.90;7.55;;;;;;;4.00;85.12;100988.03;1783853;80;21240;-77
2022/12/29 17:32:53;;;;;;;15.98;8.25;;;;;;;4.13;84.61;100983.90;1766482;80;21768;-78
2022/12/29 17:35:58;;;;;;;13.15;6.75;;;;;;;4.11;84.67;100984.03;1753592;80;21198;-77
2022/12/29 17:39:05;;;;;;;12.25;6.85;;;;;;;3.92;85.00;100985.08;1745446;80;21171;-77
2022/12/29 17:42:12;;;;;;;15.18;8.00;;;;;;;4.01;84.97;100984.37;1765027;80;21217;-77
2022/12/29 17:45:23;;;;;;;11.55;6.75;;;;;;;4.01;84.89;100985.72;1747990;80;21228;-77
2022/12/29 17:48:29;;;;;;;11.55;7.10;;;;;;;4.00;84.93;100983.97;1677262;84;21804;-77
2022/12/29 17:51:34;;;;;;;11.93;6.65;;;;;;;4.10;84.80;100988.59;1667182;85;21237;-78
2022/12/29 17:54:40;;;;;;;11.63;6.47;;;;;;;4.13;84.58;100982.05;1655914;86;21248;-78
2022/12/29 17:57:47;;;;;;;16.12;6.83;;;;;;;4.09;84.64;100986.86;1637851;86;21273;-78
2022/12/29 18:00:54;;;;;;;14.03;7.33;;;;;;;4.16;84.36;100980.47;1655014;86;21865;-77
2022/12/29 18:03:59;;;;;;;15.08;6.50;;;;;;;4.29;83.96;100972.27;1655911;86;21272;-78
2022/12/29 18:07:05;;;;;;;10.43;6.05;;;;;;;4.15;84.12;100970.62;1661263;86;21237;-78
2022/12/29 18:10:11;;;;;;;9.50;6.03;;;;;;;4.17;84.36;100967.30;1670254;86;21257;-78
2022/12/29 18:13:31;;;;;;;15.48;6.10;;;;;;;4.06;84.96;100967.28;1670159;86;22523;-79
2022/12/29 18:16:39;;;;;;;9.28;5.95;;;;;;;4.05;85.02;100954.23;1668888;86;21245;-77
2022/12/29 18:19:45;;;;;;;11.30;6.30;;;;;;;3.96;85.43;100950.03;1670000;86;21554;-77
2022/12/29 18:22:51;;;;;;;11.78;5.95;;;;;;;3.99;85.54;100951.13;1707296;82;21232;-78
2022/12/29 18:26:10;;;;;;;12.28;5.92;;;;;;;3.98;85.59;100946.70;1698062;84;21186;-78
2022/12/29 18:29:17;;;;;;;8.88;5.25;;;;;;;3.94;85.82;100949.27;1698160;84;21197;-77
2022/12/29 18:32:23;;;;;;;8.60;5.10;;;;;;;3.97;86.03;100943.62;1722851;81;21215;-78
2022/12/29 18:35:45;;;;;;;9.33;4.53;;;;;;;3.84;86.29;100939.14;1730749;83;21187;-78
2022/12/29 18:38:52;;;;;;;14.38;6.08;;;;;;;3.82;86.66;100933.49;1701802;84;21738;-77
2022/12/29 18:42:00;;;;;;;8.38;4.75;;;;;;;3.81;86.78;100927.69;1701878;84;21188;-79
2022/12/29 18:45:05;;;;;;;9.83;4.87;;;;;;;3.76;87.04;100935.30;1701994;84;21199;-77
2022/12/29 18:48:10;;;;;;;12.20;6.08;;;;;;;3.83;87.15;100929.80;1700765;84;21763;-77
2022/12/29 18:51:24;;;;;;;8.58;5.15;;;;;;;3.81;87.07;100939.86;1707036;81;21757;-78
2022/12/29 18:54:36;;;;;;;8.65;4.75;;;;;;;3.84;87.27;100958.09;1769387;81;21189;-78
2022/12/29 18:57:42;;;;;;;8.73;4.97;;;;;;;3.71;87.73;100961.34;1769432;81;21193;-78
2022/12/29 19:00:48;;;;;;;8.33;4.65;;;;;;;3.83;87.90;100963.13;1768065;81;21220;-76
2022/12/29 19:03:52;;;;;;;8.23;4.30;;;;;;;3.93;87.62;100957.02;1755864;81;21748;-77
2022/12/29 19:06:58;;;;;;;8.95;4.33;;;;;;;4.05;87.29;100959.65;1734635;82;21177;-78
2022/12/29 19:10:04;;;;;;;7.78;4.33;;;;;;;4.09;86.95;100950.31;1737436;82;21240;-78
2022/12/29 19:13:10;;;;;;;7.58;4.30;;;;;;;4.14;87.02;100957.19;1732405;82;22535;-78
2022/12/29 19:16:19;;;;;;;9.68;4.45;;;;;;;4.20;86.95;100953.53;1736400;82;21225;-78
2022/12/29 19:19:25;;;;;;;7.78;4.70;;;;;;;4.27;86.72;100955.25;1737628;82;21260;-78
2022/12/29 19:22:31;;;;;;;10.15;4.92;;;;;;;4.27;86.57;100947.98;1735017;82;21283;-80
2022/12/29 19:25:37;;;;;;;9.38;4.37;;;;;;;4.29;86.17;100946.04;1734403;82;21742;-78
2022/12/29 19:28:43;;;;;;;8.78;4.25;;;;;;;4.30;86.14;100950.47;1733277;82;21786;-77
2022/12/29 19:31:48;;;;;;;8.33;4.08;;;;;;;4.38;85.94;100950.38;1733370;81;21283;-77
2022/12/29 19:34:54;;;;;;;8.65;4.85;;;;;;;4.38;85.94;100942.25;1736883;82;22569;-79
2022/12/29 19:37:59;;;;;;;10.03;5.00;;;;;;;4.40;85.81;100936.20;1736529;82;21201;-79
2022/12/29 19:41:05;;;;;;;8.03;4.65;;;;;;;4.43;85.78;100927.34;1736607;82;21189;-78
2022/12/29 19:44:11;;;;;;;9.15;5.20;;;;;;;4.40;85.87;100924.02;1736444;82;21201;-77
2022/12/29 19:47:17;;;;;;;13.13;5.28;;;;;;;4.35;85.79;100923.88;1735440;82;21240;-77
2022/12/29 19:50:24;;;;;;;9.45;5.03;;;;;;;4.38;85.57;100929.56;1736050;82;21208;-76
2022/12/29 19:53:30;;;;;;;10.85;5.47;;;;;;;4.33;85.58;100935.84;1735468;82;21775;-77
2022/12/29 19:56:36;;;;;;;10.90;6.03;;;;;;;4.27;85.98;100937.16;1736542;82;21195;-77